Current | Forecast
Updated: 10:30 AM MSK on June 18, 2018
Observed at Elista, Russia
Temperature 81°F
Humidity 16%
Dew Point 30°F
Wind ESE at 9 mph
Pressure 29.86 in (Steady)
Conditions Clear
Visibility -
UV N/A
Clouds
Yesterday's Maximum 84°F
Yesterday's Minimum 63°F approx.
Yesterday's Cooling Degree Days 8 approx.
Sunrise4:13 AM MSK
Sunset7:58 PM MSK
Moon Rise9:27 AM MSK
Moon Set11:42 PM MSK
Moon PhaseMoon Phase
Waxing Crescent
Raw METARMETAR URWI 180730Z 12004MPS CAVOK 27/M01 Q1011 TEMPO 12009G14MPS


Monday
. High: 73° F.
Tuesday
. High: 66° F.
Wednesday
. High: 59° F.
Thursday
. High: 51° F.
Friday
. High: 57° F.
Saturday
. High: 69° F.
Sunday
. High: 62° F.
Monday
. High: 64° F.

Units: English | Metric

Find the Weather for any City, State or Zipcode, or Country:

U.S. State List | Severe Weather | Tropical Storms | Ski Conditions
United States | Canada | Central America | South America | Asia | Europe | Australia | Africa | Islands

Weather Underground

© Copyright 2018
The Weather Company, LLC